Time;durP1;ratioP1;P1;durP2;ratioP2;P2;SDS_P1;SDS_P2;PMS_P1;PMS_P2;Temp;Humidity;BMP_temperature;BMP_pressure;BME280_temperature;BME280_humidity;BME280_pressure;Samples;Min_cycle;Max_cycle;Signal;HPM_P1;HPM_P2
2022/09/21 00:00:37;;;;;;;4.38;2.47;;;13.30;75.90;;;;;;5075579;28;20088;-69
2022/09/21 00:03:03;;;;;;;5.10;2.50;;;13.30;76.00;;;;;;5075553;28;20028;-69
2022/09/21 00:05:30;;;;;;;2.72;1.95;;;13.30;76.20;;;;;;5075454;28;20074;-69
2022/09/21 00:07:59;;;;;;;4.50;2.20;;;13.30;76.50;;;;;;5075448;28;20056;-69
2022/09/21 00:10:25;;;;;;;3.60;2.00;;;13.40;76.40;;;;;;5075251;28;20072;-69
2022/09/21 00:12:52;;;;;;;5.05;2.30;;;13.40;76.10;;;;;;5074427;28;20100;-68
2022/09/21 00:15:18;;;;;;;2.30;1.80;;;13.40;76.00;;;;;;5075322;28;20021;-69
2022/09/21 00:17:45;;;;;;;3.53;1.95;;;13.30;77.00;;;;;;5075247;28;20021;-68
2022/09/21 00:20:11;;;;;;;3.58;2.25;;;13.30;76.10;;;;;;5075213;28;20029;-69
2022/09/21 00:22:37;;;;;;;3.60;2.75;;;13.40;76.00;;;;;;5074278;28;20032;-69
2022/09/21 00:25:03;;;;;;;4.78;2.20;;;13.30;76.10;;;;;;5075028;28;20032;-69
2022/09/21 00:27:30;;;;;;;5.65;2.53;;;13.40;76.10;;;;;;5074373;28;20025;-69
2022/09/21 00:29:56;;;;;;;4.50;2.35;;;13.40;75.90;;;;;;5074316;28;20029;-68
2022/09/21 00:32:25;;;;;;;3.03;2.03;;;13.40;75.90;;;;;;5074028;28;20018;-68
2022/09/21 00:34:52;;;;;;;5.85;2.95;;;13.40;75.80;;;;;;5074054;28;20029;-69
2022/09/21 00:37:18;;;;;;;4.82;2.58;;;13.40;75.90;;;;;;5074944;28;20025;-69
2022/09/21 00:39:45;;;;;;;4.65;2.40;;;13.40;76.00;;;;;;5074865;28;20025;-68
2022/09/21 00:42:18;;;;;;;3.85;2.22;;;13.30;76.20;;;;;;5073768;28;20017;-68
2022/09/21 00:44:44;;;;;;;6.90;2.72;;;13.20;76.30;;;;;;5073688;28;20028;-69
2022/09/21 00:47:13;;;;;;;5.95;2.65;;;13.30;76.40;;;;;;5074690;28;20047;-69
2022/09/21 00:49:42;;;;;;;5.72;2.30;;;13.30;76.40;;;;;;5074672;28;20025;-69
2022/09/21 00:52:11;;;;;;;3.60;2.20;;;13.30;76.20;;;;;;5074621;28;20021;-69
2022/09/21 00:54:45;;;;;;;4.25;2.35;;;13.30;76.10;;;;;;5074711;28;20021;-69
2022/09/21 00:57:14;;;;;;;4.78;2.60;;;13.30;76.10;;;;;;5074552;28;20028;-69
2022/09/21 00:59:42;;;;;;;5.63;2.55;;;13.30;76.20;;;;;;5074497;28;20092;-69
2022/09/21 01:02:08;;;;;;;4.25;2.42;;;13.20;76.30;;;;;;5073452;28;20080;-69
2022/09/21 01:04:35;;;;;;;4.85;2.55;;;13.10;76.60;;;;;;5074299;28;20052;-69
2022/09/21 01:07:06;;;;;;;7.88;2.47;;;13.00;76.70;;;;;;5074328;28;20036;-68
2022/09/21 01:09:32;;;;;;;5.18;2.30;;;13.10;77.00;;;;;;5074092;28;20045;-68
2022/09/21 01:12:13;;;;;;;5.03;2.58;;;13.00;76.70;;;;;;5073280;28;20105;-69
2022/09/21 01:15:05;;;;;;;3.40;2.45;;;13.00;76.80;;;;;;5074156;28;20024;-69
2022/09/21 01:17:42;;;;;;;3.70;2.63;;;13.00;77.00;;;;;;5074144;28;20021;-69
2022/09/21 01:20:33;;;;;;;5.07;2.40;;;13.00;77.10;;;;;;5074262;28;20021;-69
2022/09/21 01:23:14;;;;;;;5.13;2.65;;;13.00;77.00;;;;;;5074071;28;20085;-69
2022/09/21 01:26:06;;;;;;;8.85;2.83;;;12.90;77.10;;;;;;5073910;28;20051;-68
2022/09/21 01:29:01;;;;;;;5.10;2.45;;;12.90;77.20;;;;;;5072957;28;20036;-69
2022/09/21 01:31:34;;;;;;;5.65;2.25;;;13.00;77.00;;;;;;5074037;28;20077;-69
2022/09/21 01:34:06;;;;;;;5.68;2.55;;;12.90;77.10;;;;;;5073856;28;20065;-69
2022/09/21 01:36:33;;;;;;;4.63;2.60;;;12.90;77.00;;;;;;5073815;28;20078;-69
2022/09/21 01:39:08;;;;;;;5.25;2.13;;;12.80;77.10;;;;;;5073769;28;20051;-68
2022/09/21 01:41:37;;;;;;;4.32;2.50;;;12.80;77.30;;;;;;5072816;28;20021;-69
2022/09/21 01:44:11;;;;;;;5.68;2.10;;;12.80;77.20;;;;;;5073599;28;20036;-69
2022/09/21 01:46:38;;;;;;;4.32;2.50;;;12.80;77.10;;;;;;5072697;28;20098;-69
2022/09/21 01:49:20;;;;;;;5.75;2.70;;;12.80;77.10;;;;;;5073596;28;20040;-68
2022/09/21 01:51:52;;;;;;;5.85;2.65;;;12.80;77.10;;;;;;5073730;28;20028;-69
2022/09/21 01:54:24;;;;;;;5.63;2.70;;;12.70;77.00;;;;;;5073565;28;20028;-69
2022/09/21 01:57:01;;;;;;;5.63;2.60;;;12.70;77.20;;;;;;5073530;28;20029;-69
2022/09/21 01:59:57;;;;;;;5.88;2.80;;;12.70;77.00;;;;;;5073483;28;20024;-68
2022/09/21 02:02:45;;;;;;;4.13;2.30;;;12.80;76.90;;;;;;5070327;28;20044;-69
2022/09/21 02:05:12;;;;;;;4.75;2.47;;;12.70;76.40;;;;;;5073446;28;20025;-69
2022/09/21 02:07:38;;;;;;;5.03;2.67;;;12.70;76.30;;;;;;5073287;28;20058;-69
2022/09/21 02:10:07;;;;;;;4.05;2.40;;;12.70;76.00;;;;;;5073104;28;20056;-69
2022/09/21 02:12:33;;;;;;;6.03;2.58;;;12.50;76.20;;;;;;5073191;28;20028;-69
2022/09/21 02:14:59;;;;;;;5.18;2.83;;;12.60;76.20;;;;;;5073209;28;20107;-69
2022/09/21 02:17:56;;;;;;;8.18;2.90;;;12.50;76.20;;;;;;5073188;28;20033;-69
2022/09/21 02:20:33;;;;;;;5.03;2.55;;;12.50;76.30;;;;;;5073171;28;20035;-69
2022/09/21 02:23:08;;;;;;;5.07;2.30;;;12.40;76.30;;;;;;5073205;28;20021;-69
2022/09/21 02:25:59;;;;;;;4.55;2.40;;;12.40;76.20;;;;;;5073208;28;20025;-69
2022/09/21 02:28:51;;;;;;;5.95;2.50;;;12.40;76.00;;;;;;5073161;28;20034;-69
2022/09/21 02:31:47;;;;;;;11.77;2.60;;;12.40;76.00;;;;;;5073100;28;20032;-69
2022/09/21 02:34:34;;;;;;;3.75;2.25;;;12.20;76.10;;;;;;5073192;28;20021;-68
2022/09/21 02:37:22;;;;;;;3.85;2.20;;;12.10;76.40;;;;;;5071981;28;20025;-68
2022/09/21 02:39:59;;;;;;;4.35;2.10;;;11.90;76.70;;;;;;5073034;28;20443;-69
2022/09/21 02:42:36;;;;;;;4.60;2.22;;;11.90;76.60;;;;;;5072050;28;20021;-68
2022/09/21 02:45:08;;;;;;;3.65;1.88;;;11.90;76.80;;;;;;5073032;28;20029;-69
2022/09/21 02:47:41;;;;;;;3.23;1.63;;;11.90;76.50;;;;;;5072921;28;20025;-69
2022/09/21 02:50:13;;;;;;;3.30;1.63;;;12.00;76.20;;;;;;5072057;28;20033;-69
2022/09/21 02:52:41;;;;;;;2.95;1.88;;;12.00;75.80;;;;;;5073255;28;20021;-69
2022/09/21 02:55:09;;;;;;;7.28;2.42;;;12.00;75.50;;;;;;5076854;28;20025;-69
2022/09/21 02:57:37;;;;;;;4.38;2.35;;;11.90;75.60;;;;;;5075794;28;20151;-69
2022/09/21 03:00:05;;;;;;;5.07;2.22;;;11.90;75.80;;;;;;5076768;28;20039;-69
2022/09/21 03:02:43;;;;;;;6.47;2.80;;;11.80;75.80;;;;;;5076691;28;20033;-69
2022/09/21 03:05:10;;;;;;;4.68;2.45;;;11.80;75.90;;;;;;5076625;28;20464;-69
2022/09/21 03:07:36;;;;;;;6.20;2.30;;;11.70;76.10;;;;;;5076611;28;20025;-69
2022/09/21 03:10:03;;;;;;;3.38;1.90;;;11.70;76.20;;;;;;5076383;28;20523;-68
2022/09/21 03:12:29;;;;;;;3.33;2.13;;;11.60;76.20;;;;;;5076528;28;20017;-69
2022/09/21 03:14:55;;;;;;;4.60;2.30;;;11.60;76.20;;;;;;5076443;28;20025;-69
2022/09/21 03:17:21;;;;;;;6.13;2.40;;;11.60;75.60;;;;;;5075427;28;20040;-69
2022/09/21 03:19:46;;;;;;;4.13;2.53;;;11.60;75.50;;;;;;5076384;28;20124;-69
2022/09/21 03:22:12;;;;;;;6.15;2.15;;;11.50;75.60;;;;;;5076328;28;20033;-69
2022/09/21 03:24:47;;;;;;;5.15;2.67;;;11.50;75.30;;;;;;5076210;28;20040;-69
2022/09/21 03:27:18;;;;;;;6.25;2.40;;;11.40;75.50;;;;;;5075569;28;20025;-69
2022/09/21 03:29:44;;;;;;;3.00;2.13;;;11.40;75.30;;;;;;5076154;28;20087;-69
2022/09/21 03:32:10;;;;;;;4.13;2.55;;;11.30;75.50;;;;;;5076168;28;20073;-68
2022/09/21 03:34:35;;;;;;;3.80;2.17;;;11.30;75.30;;;;;;5076087;28;20071;-69
2022/09/21 03:37:03;;;;;;;3.58;2.25;;;11.30;75.20;;;;;;5076178;28;20456;-68
2022/09/21 03:39:29;;;;;;;4.03;2.22;;;11.30;75.20;;;;;;5075053;28;20103;-69
2022/09/21 03:41:55;;;;;;;3.83;2.50;;;11.20;75.00;;;;;;5075981;28;20029;-69
2022/09/21 03:44:25;;;;;;;5.47;2.28;;;11.30;75.00;;;;;;5076028;28;20080;-69
2022/09/21 03:46:52;;;;;;;5.88;2.22;;;11.20;74.90;;;;;;5075913;28;20476;-68
2022/09/21 03:49:18;;;;;;;4.10;2.35;;;10.90;74.50;;;;;;5075816;28;20029;-68
2022/09/21 03:51:44;;;;;;;6.10;2.67;;;10.60;75.10;;;;;;5075790;28;20114;-69
2022/09/21 03:54:10;;;;;;;5.47;2.53;;;10.60;75.90;;;;;;5075755;28;20033;-69
2022/09/21 03:56:36;;;;;;;5.00;2.33;;;10.80;75.60;;;;;;5058027;28;20033;-69
2022/09/21 03:59:01;;;;;;;4.82;2.17;;;10.90;75.10;;;;;;5075633;28;20025;-69
2022/09/21 04:01:27;;;;;;;3.10;2.17;;;10.90;74.90;;;;;;5075596;28;20071;-69
2022/09/21 04:03:53;;;;;;;3.17;1.77;;;10.90;75.30;;;;;;5075189;28;20033;-69
2022/09/21 04:06:19;;;;;;;7.03;2.22;;;10.90;75.40;;;;;;5074726;28;20024;-69
2022/09/21 04:08:44;;;;;;;4.97;2.45;;;10.80;75.50;;;;;;5075437;28;20029;-68
2022/09/21 04:11:16;;;;;;;3.00;2.00;;;10.90;75.60;;;;;;5075260;28;20053;-69
2022/09/21 04:13:41;;;;;;;8.20;2.45;;;10.90;75.40;;;;;;5075546;28;20040;-69
2022/09/21 04:16:08;;;;;;;4.03;2.35;;;10.90;75.60;;;;;;5075333;28;20025;-69
2022/09/21 04:18:35;;;;;;;2.45;1.83;;;10.90;75.50;;;;;;5075268;28;20017;-69
2022/09/21 04:21:00;;;;;;;2.00;1.60;;;10.80;75.40;;;;;;5075243;28;20029;-68
2022/09/21 04:23:26;;;;;;;3.13;1.67;;;10.80;75.30;;;;;;5075324;28;20036;-69
2022/09/21 04:25:53;;;;;;;2.22;1.33;;;10.70;75.50;;;;;;5074202;28;20017;-69
2022/09/21 04:28:19;;;;;;;3.60;2.20;;;10.70;75.10;;;;;;5074121;28;20032;-69
2022/09/21 04:30:45;;;;;;;2.95;1.55;;;10.70;74.90;;;;;;5075035;28;20021;-68
2022/09/21 04:33:11;;;;;;;3.65;2.47;;;10.70;74.90;;;;;;5075022;28;20048;-69
2022/09/21 04:35:36;;;;;;;4.50;2.55;;;10.70;74.60;;;;;;5075087;28;20037;-69
2022/09/21 04:38:02;;;;;;;6.40;2.50;;;10.70;74.40;;;;;;5074893;28;20025;-69
2022/09/21 04:40:28;;;;;;;8.75;2.70;;;10.70;75.30;;;;;;5074885;28;20047;-69
2022/09/21 04:42:54;;;;;;;5.10;2.15;;;10.70;74.30;;;;;;5073934;28;20477;-68
2022/09/21 04:45:21;;;;;;;5.28;2.22;;;10.70;74.20;;;;;;5073740;28;20025;-69
2022/09/21 04:47:47;;;;;;;3.85;2.38;;;10.60;73.70;;;;;;5073800;28;20035;-69
2022/09/21 04:50:13;;;;;;;5.78;2.30;;;10.50;73.90;;;;;;5073796;28;20021;-69
2022/09/21 04:52:38;;;;;;;5.05;2.58;;;10.40;74.10;;;;;;5073571;28;20025;-69
2022/09/21 04:55:06;;;;;;;4.72;2.85;;;10.30;74.30;;;;;;5073555;28;20044;-69
2022/09/21 04:57:31;;;;;;;6.22;2.47;;;10.30;74.80;;;;;;5073514;28;20024;-68
2022/09/21 04:59:57;;;;;;;4.25;2.50;;;10.30;74.50;;;;;;5074458;28;20037;-69
2022/09/21 05:02:23;;;;;;;5.57;2.40;;;10.30;74.30;;;;;;5074457;28;20071;-69
2022/09/21 05:04:49;;;;;;;6.07;2.83;;;10.20;74.60;;;;;;5074334;28;20076;-69
2022/09/21 05:07:16;;;;;;;5.15;2.20;;;10.10;74.80;;;;;;5074321;28;20033;-69
2022/09/21 05:12:25;;;;;;;5.90;2.78;;;10.20;74.80;;;;;;5073582;28;20040;-69
2022/09/21 05:14:51;;;;;;;5.95;2.53;;;10.20;74.60;;;;;;5074293;28;20029;-69
2022/09/21 05:17:17;;;;;;;5.63;2.47;;;10.10;74.50;;;;;;5073949;28;20124;-69
2022/09/21 05:19:42;;;;;;;7.65;2.90;;;10.20;74.50;;;;;;5074098;28;20025;-69
2022/09/21 05:22:08;;;;;;;5.72;2.50;;;10.20;74.70;;;;;;5074054;28;20041;-69
2022/09/21 05:24:33;;;;;;;5.28;2.55;;;10.30;74.40;;;;;;5074064;28;20074;-69
2022/09/21 05:26:59;;;;;;;5.70;2.50;;;10.30;74.10;;;;;;5073939;28;20033;-69
2022/09/21 05:29:25;;;;;;;4.75;2.40;;;10.30;74.00;;;;;;5073871;28;20029;-69
2022/09/21 05:31:56;;;;;;;4.00;2.40;;;10.20;74.10;;;;;;5072968;28;20028;-69
2022/09/21 05:34:45;;;;;;;4.15;1.85;;;10.10;74.20;;;;;;5073887;28;20081;-69
2022/09/21 05:37:25;;;;;;;4.65;2.50;;;10.00;74.70;;;;;;5073839;28;20479;-69
2022/09/21 05:39:51;;;;;;;4.00;2.20;;;10.00;74.90;;;;;;5073929;28;20025;-69
2022/09/21 05:42:17;;;;;;;7.85;2.08;;;10.00;74.80;;;;;;5073675;28;20376;-69
2022/09/21 05:44:43;;;;;;;4.00;2.20;;;10.00;74.90;;;;;;5056024;28;20029;-69
2022/09/21 05:47:39;;;;;;;6.20;2.80;;;9.90;75.00;;;;;;5073623;28;20021;-69
2022/09/21 05:50:24;;;;;;;6.32;2.78;;;10.00;75.10;;;;;;5073589;28;20021;-69
2022/09/21 05:53:10;;;;;;;4.75;2.42;;;10.00;75.00;;;;;;5073556;28;20071;-68
2022/09/21 05:55:42;;;;;;;7.00;2.80;;;10.00;74.80;;;;;;5073620;28;20036;-69
2022/09/21 05:58:17;;;;;;;5.15;2.50;;;10.10;74.90;;;;;;5073486;28;20033;-69
2022/09/21 06:00:55;;;;;;;4.43;2.20;;;10.10;74.80;;;;;;5073583;28;20036;-69
2022/09/21 06:03:33;;;;;;;3.63;2.28;;;10.10;75.00;;;;;;5073551;28;20028;-69
2022/09/21 06:05:59;;;;;;;4.82;2.63;;;10.10;75.40;;;;;;5073451;28;20089;-69
2022/09/21 06:08:25;;;;;;;6.05;2.33;;;10.00;75.50;;;;;;5073403;28;20033;-69
2022/09/21 06:10:51;;;;;;;4.75;2.60;;;10.00;75.60;;;;;;5073115;28;20060;-69
2022/09/21 06:13:17;;;;;;;6.45;2.50;;;10.10;75.50;;;;;;5073242;28;20025;-69
2022/09/21 06:15:43;;;;;;;6.45;2.92;;;10.10;75.30;;;;;;5073219;28;20028;-69
2022/09/21 06:18:09;;;;;;;5.38;3.17;;;10.10;76.20;;;;;;5073040;28;20025;-69
2022/09/21 06:20:35;;;;;;;6.57;2.92;;;10.10;75.40;;;;;;5072236;28;20037;-69
2022/09/21 06:23:06;;;;;;;4.65;2.58;;;10.20;75.60;;;;;;5073154;28;20079;-70
2022/09/21 06:25:31;;;;;;;5.07;2.88;;;10.30;76.10;;;;;;5073009;28;20032;-69
2022/09/21 06:28:05;;;;;;;7.88;3.13;;;10.20;76.90;;;;;;5075306;28;20088;-69
2022/09/21 06:30:33;;;;;;;7.00;2.95;;;10.20;76.90;;;;;;5079739;28;20044;-69
2022/09/21 06:33:26;;;;;;;7.20;3.15;;;10.40;77.00;;;;;;5079706;28;20070;-68
2022/09/21 06:36:02;;;;;;;;;;;10.50;77.10;;;;;;5079717;28;20067;-68
2022/09/21 06:38:36;;;;;;;6.82;2.90;;;10.50;76.80;;;;;;5079898;28;19904;-69
2022/09/21 06:41:03;;;;;;;6.43;2.88;;;10.40;77.30;;;;;;5079640;28;20040;-69
2022/09/21 06:43:35;;;;;;;7.68;4.05;;;10.50;77.80;;;;;;5079602;28;20108;-70
2022/09/21 06:46:28;;;;;;;8.30;3.55;;;10.40;78.50;;;;;;5078532;28;20029;-68
2022/09/21 06:49:32;;;;;;;6.75;2.97;;;10.50;79.10;;;;;;5078663;28;20092;-69
2022/09/21 06:52:07;;;;;;;7.53;3.53;;;10.60;78.80;;;;;;5079833;28;20024;-70
2022/09/21 06:54:32;;;;;;;7.00;3.60;;;10.70;78.90;;;;;;5079790;28;20025;-73
2022/09/21 06:56:58;;;;;;;7.18;4.38;;;10.80;79.50;;;;;;5078694;28;20037;-72
2022/09/21 06:59:24;;;;;;;6.72;4.13;;;10.80;79.30;;;;;;5078685;28;20025;-73
2022/09/21 07:01:49;;;;;;;6.57;3.83;;;10.80;79.70;;;;;;5078609;28;20500;-72
2022/09/21 07:04:15;;;;;;;8.75;4.20;;;10.80;80.20;;;;;;5079541;28;20043;-69
2022/09/21 07:06:40;;;;;;;7.53;3.97;;;10.90;80.30;;;;;;5078438;28;20063;-70
2022/09/21 07:09:06;;;;;;;8.82;3.90;;;10.90;81.00;;;;;;5079371;28;20017;-71
2022/09/21 07:11:32;;;;;;;7.28;3.90;;;11.00;80.60;;;;;;5078524;28;20415;-70
2022/09/21 07:13:58;;;;;;;8.40;4.28;;;11.10;80.70;;;;;;5078462;28;20029;-70
2022/09/21 07:16:24;;;;;;;7.63;4.10;;;11.30;80.60;;;;;;5079432;28;20049;-70
2022/09/21 07:18:49;;;;;;;10.27;4.03;;;11.40;80.60;;;;;;5079504;28;20021;-73
2022/09/21 07:21:15;;;;;;;9.32;4.65;;;11.50;80.70;;;;;;5079313;28;20040;-72
2022/09/21 07:23:41;;;;;;;9.27;4.95;;;11.60;81.30;;;;;;5079330;28;20017;-73
2022/09/21 07:26:09;;;;;;;9.93;4.47;;;11.60;81.10;;;;;;5078198;28;20037;-70
2022/09/21 07:28:50;;;;;;;9.90;5.13;;;11.70;81.10;;;;;;5079118;28;20017;-70
2022/09/21 07:31:16;;;;;;;9.07;4.97;;;11.80;81.10;;;;;;5078548;28;20029;-69
2022/09/21 07:33:45;;;;;;;9.25;4.97;;;11.90;81.70;;;;;;5078235;28;20021;-72
2022/09/21 07:36:11;;;;;;;8.40;4.43;;;12.00;81.60;;;;;;5079197;28;20025;-72
2022/09/21 07:38:38;;;;;;;8.20;5.10;;;12.10;81.50;;;;;;5078876;28;20025;-72
2022/09/21 07:41:09;;;;;;;10.60;4.55;;;12.20;81.30;;;;;;5076176;28;20021;-72
2022/09/21 07:43:38;;;;;;;8.30;4.38;;;12.20;81.30;;;;;;5075999;28;20029;-72
2022/09/21 07:46:04;;;;;;;9.73;4.38;;;12.30;80.90;;;;;;5075825;28;20021;-72
2022/09/21 07:48:29;;;;;;;7.22;4.25;;;12.40;80.70;;;;;;5075869;28;20029;-72
2022/09/21 07:51:03;;;;;;;7.32;3.83;;;12.50;80.60;;;;;;5075865;28;20037;-72
2022/09/21 07:53:30;;;;;;;7.20;3.90;;;12.60;80.50;;;;;;5075858;28;20080;-72
2022/09/21 07:56:07;;;;;;;10.85;4.18;;;12.60;80.40;;;;;;5075772;28;20025;-72
2022/09/21 08:01:24;;;;;;;7.15;4.28;;;12.80;81.20;;;;;;5075799;28;20055;-72
2022/09/21 08:03:51;;;;;;;7.85;4.50;;;12.90;80.60;;;;;;5075593;28;20052;-72
2022/09/21 08:06:17;;;;;;;8.15;3.90;;;13.00;80.40;;;;;;5075486;28;20475;-73
2022/09/21 08:08:44;;;;;;;7.15;3.97;;;13.10;80.60;;;;;;5075634;28;20021;-72
2022/09/21 08:11:10;;;;;;;8.35;4.50;;;13.20;80.50;;;;;;5075300;28;20087;-72
2022/09/21 08:13:36;;;;;;;9.70;4.32;;;13.20;80.70;;;;;;5074492;28;20043;-72
2022/09/21 08:16:02;;;;;;;8.07;3.90;;;13.30;80.70;;;;;;5074572;28;20033;-72
2022/09/21 08:18:28;;;;;;;8.18;4.20;;;13.40;80.40;;;;;;5075356;28;20033;-72
2022/09/21 08:20:58;;;;;;;8.18;4.25;;;13.50;80.60;;;;;;5075277;28;20017;-72
2022/09/21 08:23:41;;;;;;;6.90;3.88;;;13.60;80.60;;;;;;5075340;28;20025;-70
2022/09/21 08:26:07;;;;;;;8.43;3.90;;;13.70;80.10;;;;;;5074492;28;20029;-70
2022/09/21 08:28:37;;;;;;;10.52;4.22;;;13.80;80.00;;;;;;5075078;28;20021;-72
2022/09/21 08:31:08;;;;;;;6.70;4.30;;;13.80;79.90;;;;;;5074284;28;20009;-72
2022/09/21 08:33:34;;;;;;;9.57;3.80;;;13.90;79.90;;;;;;5074142;28;20029;-72
2022/09/21 08:36:01;;;;;;;8.10;3.75;;;14.00;79.50;;;;;;5075040;28;20097;-72
2022/09/21 08:38:32;;;;;;;5.72;3.47;;;14.20;79.40;;;;;;5074977;28;20077;-72
2022/09/21 08:41:01;;;;;;;7.25;3.65;;;14.30;79.00;;;;;;5074971;28;20024;-72
2022/09/21 08:43:38;;;;;;;6.97;3.88;;;14.40;78.80;;;;;;5074783;28;20036;-72
2022/09/21 08:46:16;;;;;;;8.75;3.95;;;14.50;78.70;;;;;;5074914;28;20025;-71
2022/09/21 08:48:56;;;;;;;6.82;3.38;;;14.60;78.50;;;;;;5074788;28;20081;-73
2022/09/21 08:51:27;;;;;;;5.32;3.05;;;14.70;78.20;;;;;;5074385;28;20017;-72
2022/09/21 08:53:57;;;;;;;5.70;3.15;;;14.70;77.30;;;;;;5074714;28;20044;-72
2022/09/21 08:56:25;;;;;;;5.82;3.08;;;14.80;77.00;;;;;;5074638;28;20052;-72
2022/09/21 08:58:50;;;;;;;6.70;3.17;;;14.80;76.40;;;;;;5074558;28;20219;-72
2022/09/21 09:01:19;;;;;;;7.18;2.53;;;14.90;76.40;;;;;;5074642;28;20084;-71
2022/09/21 09:04:06;;;;;;;7.68;2.40;;;15.00;76.20;;;;;;5074439;28;20021;-72
2022/09/21 09:06:53;;;;;;;6.15;2.63;;;15.20;75.50;;;;;;5074410;28;20033;-71
2022/09/21 09:09:39;;;;;;;8.02;2.60;;;15.30;74.70;;;;;;5074283;28;20040;-72
2022/09/21 09:12:21;;;;;;;6.03;2.53;;;15.40;73.90;;;;;;5074462;28;20036;-72
2022/09/21 09:14:53;;;;;;;8.03;2.47;;;15.30;72.30;;;;;;5074435;28;20029;-72
2022/09/21 09:17:37;;;;;;;5.78;1.88;;;15.40;73.40;;;;;;5074385;28;20032;-70
2022/09/21 09:20:17;;;;;;;3.95;1.50;;;15.50;73.50;;;;;;5074198;28;20025;-70
2022/09/21 09:23:07;;;;;;;7.88;1.75;;;15.70;72.50;;;;;;5074175;28;20013;-70
2022/09/21 09:25:41;;;;;;;2.17;1.30;;;15.80;72.10;;;;;;5065623;28;20037;-70
2022/09/21 09:28:22;;;;;;;3.90;1.38;;;16.00;71.40;;;;;;5073828;28;20024;-70
2022/09/21 09:30:55;;;;;;;4.10;1.27;;;16.10;70.90;;;;;;5072936;28;20029;-72
2022/09/21 09:33:38;;;;;;;2.67;1.10;;;16.30;71.00;;;;;;5072559;28;20025;-72
2022/09/21 09:36:05;;;;;;;2.92;1.33;;;16.40;71.20;;;;;;5073891;28;20028;-72
2022/09/21 09:38:41;;;;;;;2.35;1.27;;;16.40;69.60;;;;;;5073810;28;20025;-72
2022/09/21 09:41:31;;;;;;;5.25;1.92;;;16.50;69.50;;;;;;5072594;28;20093;-71
2022/09/21 09:44:52;;;;;;;2.80;0.93;;;16.60;68.40;;;;;;5072046;28;20021;-71
2022/09/21 09:47:26;;;;;;;2.88;0.80;;;16.60;64.10;;;;;;5052157;28;20083;-70
2022/09/21 09:50:02;;;;;;;3.25;0.77;;;16.60;65.50;;;;;;5073477;28;20037;-71
2022/09/21 09:52:27;;;;;;;3.88;0.70;;;16.70;66.30;;;;;;5073775;28;20025;-71
2022/09/21 09:54:53;;;;;;;2.42;0.90;;;16.90;66.50;;;;;;5073580;28;20051;-71
2022/09/21 09:57:32;;;;;;;1.67;0.60;;;17.00;66.20;;;;;;5073539;28;20033;-71
2022/09/21 10:00:08;;;;;;;1.65;0.57;;;17.20;64.50;;;;;;5073492;28;20116;-72
2022/09/21 10:02:46;;;;;;;3.80;0.70;;;17.20;63.50;;;;;;5072635;28;20021;-71
2022/09/21 10:05:37;;;;;;;2.78;0.80;;;17.10;60.30;;;;;;5073307;28;20051;-71
2022/09/21 10:08:03;;;;;;;3.92;0.82;;;16.90;58.60;;;;;;5072443;28;20021;-70
2022/09/21 10:10:36;;;;;;;4.20;0.70;;;16.90;61.20;;;;;;5071977;28;20056;-71
2022/09/21 10:13:15;;;;;;;2.60;0.63;;;17.00;62.90;;;;;;5073405;28;20017;-71
2022/09/21 10:16:21;;;;;;;2.38;0.52;;;17.20;61.70;;;;;;5073354;28;20036;-71
2022/09/21 10:18:55;;;;;;;3.58;0.68;;;17.20;61.00;;;;;;5072068;28;20488;-70
2022/09/21 10:21:34;;;;;;;1.02;0.50;;;17.30;61.00;;;;;;5073210;28;20017;-71
2022/09/21 10:24:04;;;;;;;2.58;0.80;;;17.40;59.40;;;;;;5072798;28;20032;-71
2022/09/21 10:26:44;;;;;;;3.15;0.98;;;17.40;60.50;;;;;;5072372;28;20013;-71
2022/09/21 10:29:22;;;;;;;3.17;0.60;;;17.30;59.00;;;;;;5073055;28;20021;-71
2022/09/21 10:32:01;;;;;;;1.42;0.63;;;17.00;57.20;;;;;;5073110;28;20044;-71
2022/09/21 10:34:30;;;;;;;1.52;0.55;;;16.90;58.30;;;;;;5073087;28;20036;-71
2022/09/21 10:36:58;;;;;;;2.78;0.70;;;16.80;59.00;;;;;;5072943;28;20109;-70
2022/09/21 10:39:33;;;;;;;3.28;0.88;;;16.90;59.90;;;;;;5073019;28;20072;-71
2022/09/21 10:42:22;;;;;;;2.35;0.60;;;16.90;60.40;;;;;;5073018;28;20056;-71
2022/09/21 10:45:02;;;;;;;2.55;0.50;;;16.90;58.20;;;;;;5072951;28;20029;-71
2022/09/21 10:47:35;;;;;;;0.38;0.30;;;16.80;59.00;;;;;;5072937;28;20025;-71
2022/09/21 10:50:06;;;;;;;1.92;0.40;;;16.80;59.50;;;;;;5073086;28;20021;-71
2022/09/21 10:52:40;;;;;;;0.65;0.25;;;16.90;59.40;;;;;;5072920;28;20104;-71
2022/09/21 10:55:14;;;;;;;1.50;0.38;;;17.00;59.90;;;;;;5072951;28;20021;-71
2022/09/21 10:57:42;;;;;;;5.20;0.63;;;17.10;56.60;;;;;;5073053;28;20051;-71
2022/09/21 11:00:34;;;;;;;1.83;0.30;;;17.20;54.00;;;;;;5073026;28;20040;-71
2022/09/21 11:03:22;;;;;;;3.67;0.50;;;17.40;53.60;;;;;;5072676;28;20492;-71
2022/09/21 11:05:50;;;;;;;0.93;0.32;;;17.50;55.10;;;;;;5072615;28;20025;-71
2022/09/21 11:08:42;;;;;;;2.42;0.20;;;17.50;52.60;;;;;;5072763;28;20026;-71
2022/09/21 11:11:23;;;;;;;1.30;0.30;;;17.40;50.30;;;;;;5072693;28;20045;-71
2022/09/21 11:13:55;;;;;;;0.52;0.17;;;17.30;52.50;;;;;;5073367;28;20064;-71
2022/09/21 11:16:37;;;;;;;1.08;0.30;;;17.40;52.70;;;;;;5076561;28;20025;-71
2022/09/21 11:19:17;;;;;;;1.15;0.22;;;17.40;51.20;;;;;;5076565;28;20035;-71
2022/09/21 11:22:01;;;;;;;3.08;0.40;;;17.70;52.50;;;;;;5076597;28;20032;-71
2022/09/21 11:25:14;;;;;;;2.00;0.30;;;17.90;51.60;;;;;;5076427;28;20112;-71
2022/09/21 11:27:43;;;;;;;1.83;0.30;;;18.00;51.90;;;;;;5076504;28;20475;-71
2022/09/21 11:30:17;;;;;;;2.78;0.55;;;18.00;51.70;;;;;;5076175;28;20017;-71
2022/09/21 11:33:06;;;;;;;2.17;0.30;;;18.00;49.20;;;;;;5076225;28;20040;-71
2022/09/21 11:35:47;;;;;;;0.55;0.30;;;17.80;48.60;;;;;;5076321;28;20030;-71
2022/09/21 11:38:44;;;;;;;0.82;0.60;;;17.70;48.80;;;;;;5076086;28;20028;-71
2022/09/21 11:41:39;;;;;;;2.42;0.38;;;17.60;50.00;;;;;;5076092;28;20021;-71
2022/09/21 11:44:20;;;;;;;0.45;0.30;;;17.50;51.00;;;;;;5075966;28;20052;-71
2022/09/21 11:47:19;;;;;;;1.13;0.50;;;17.40;51.10;;;;;;5076109;28;20029;-71
2022/09/21 11:50:18;;;;;;;3.22;0.52;;;17.40;52.50;;;;;;5076088;28;20067;-71
2022/09/21 11:53:03;;;;;;;1.95;0.40;;;17.30;53.90;;;;;;5076009;28;20036;-71
2022/09/21 11:55:56;;;;;;;0.75;0.38;;;17.30;54.90;;;;;;5074883;28;20025;-71
2022/09/21 11:58:37;;;;;;;2.45;0.40;;;17.20;55.90;;;;;;5075795;28;20056;-71
2022/09/21 12:01:36;;;;;;;1.55;0.35;;;17.30;56.80;;;;;;5075876;28;20484;-71
2022/09/21 12:04:16;;;;;;;2.38;0.68;;;17.30;56.60;;;;;;5074646;28;20068;-71
2022/09/21 12:06:54;;;;;;;2.10;0.30;;;17.50;51.40;;;;;;5074595;28;20088;-72
2022/09/21 12:09:48;;;;;;;0.68;0.40;;;17.60;52.30;;;;;;5074440;28;20111;-71
2022/09/21 12:12:22;;;;;;;3.53;0.60;;;17.70;52.50;;;;;;5075531;28;20055;-71
2022/09/21 12:15:06;;;;;;;3.83;0.60;;;17.80;50.90;;;;;;5075509;28;20027;-71
2022/09/21 12:17:35;;;;;;;1.50;0.40;;;17.90;50.30;;;;;;5075568;28;20056;-71
2022/09/21 12:20:31;;;;;;;1.98;0.47;;;18.00;50.80;;;;;;5075466;28;20048;-71
2022/09/21 12:23:06;;;;;;;1.30;0.40;;;18.00;49.10;;;;;;5075436;28;20029;-71
2022/09/21 12:25:37;;;;;;;2.22;0.45;;;18.10;49.60;;;;;;5074397;28;20021;-71
2022/09/21 12:28:40;;;;;;;2.75;0.60;;;18.20;50.30;;;;;;5075154;28;20025;-71
2022/09/21 12:31:25;;;;;;;1.10;0.35;;;18.40;48.50;;;;;;5053516;28;20045;-71
2022/09/21 12:34:00;;;;;;;3.03;0.73;;;18.50;49.60;;;;;;5073661;28;20036;-71
2022/09/21 12:36:38;;;;;;;2.10;0.70;;;18.60;46.40;;;;;;5075068;28;20040;-71
2022/09/21 12:39:17;;;;;;;2.63;0.50;;;18.70;48.50;;;;;;5075004;28;20032;-71
2022/09/21 12:42:01;;;;;;;2.63;0.50;;;18.90;48.60;;;;;;5074040;28;20093;-71
2022/09/21 12:44:51;;;;;;;1.73;0.52;;;19.00;46.00;;;;;;5074853;28;20098;-72
2022/09/21 12:47:31;;;;;;;1.15;0.50;;;19.00;45.90;;;;;;5074830;28;20077;-71
2022/09/21 12:50:04;;;;;;;2.15;1.10;;;19.00;47.10;;;;;;5074897;28;20044;-70
2022/09/21 12:52:32;;;;;;;1.50;0.57;;;19.00;47.50;;;;;;5074891;28;20017;-71
2022/09/21 12:55:09;;;;;;;1.38;0.50;;;19.10;46.10;;;;;;5074671;28;20484;-71
2022/09/21 12:58:06;;;;;;;1.35;0.43;;;19.00;46.40;;;;;;5074650;28;20036;-71
2022/09/21 13:00:47;;;;;;;1.13;0.52;;;19.00;45.80;;;;;;5074598;28;20029;-71
2022/09/21 13:03:24;;;;;;;1.52;0.93;;;18.90;46.20;;;;;;5074735;28;20084;-71
2022/09/21 13:06:28;;;;;;;1.08;0.73;;;19.00;47.30;;;;;;5074431;28;20025;-71
2022/09/21 13:08:54;;;;;;;4.65;0.88;;;19.10;46.30;;;;;;5074555;28;20025;-72
2022/09/21 13:11:21;;;;;;;1.27;0.77;;;19.10;46.20;;;;;;5074184;28;20041;-71
2022/09/21 13:13:51;;;;;;;3.13;0.80;;;19.10;45.80;;;;;;5074337;28;20021;-71
2022/09/21 13:16:30;;;;;;;2.30;0.80;;;19.20;45.00;;;;;;5074328;28;20025;-71
2022/09/21 13:19:02;;;;;;;1.63;0.70;;;19.20;43.60;;;;;;5074223;28;20033;-72
2022/09/21 13:21:30;;;;;;;1.70;0.82;;;19.20;45.70;;;;;;5074192;28;20077;-72
2022/09/21 13:24:02;;;;;;;2.95;1.17;;;19.40;46.50;;;;;;5074128;28;20056;-71
2022/09/21 13:26:55;;;;;;;1.07;0.63;;;19.40;45.70;;;;;;5074261;28;20036;-71